createdAt,value
2023-02-27T00:02:01.176Z,2.40
2023-02-27T00:04:28.042Z,2.30
2023-02-27T00:06:54.782Z,2.40
2023-02-27T00:09:21.579Z,1.80
2023-02-27T00:11:48.364Z,1.90
2023-02-27T00:14:15.113Z,2.60
2023-02-27T00:16:41.984Z,2.60
2023-02-27T00:19:08.802Z,2.40
2023-02-27T00:21:36.943Z,1.70
2023-02-27T00:24:04.711Z,2.00
2023-02-27T00:26:31.595Z,2.30
2023-02-27T00:28:58.347Z,2.50
2023-02-27T00:31:25.564Z,2.60
2023-02-27T00:33:52.511Z,2.70
2023-02-27T00:36:19.268Z,2.80
2023-02-27T00:38:46.042Z,2.10
2023-02-27T00:41:12.811Z,2.40
2023-02-27T00:43:39.630Z,2.50
2023-02-27T00:46:06.510Z,2.20
2023-02-27T00:48:33.410Z,2.50
2023-02-27T00:51:00.190Z,2.70
2023-02-27T00:53:26.931Z,2.90
2023-02-27T00:55:53.680Z,2.20
2023-02-27T00:58:20.599Z,2.00
2023-02-27T01:00:47.421Z,2.10
2023-02-27T01:03:14.473Z,2.30
2023-02-27T01:05:41.251Z,2.50
2023-02-27T01:08:08.239Z,2.10
2023-02-27T01:10:35.026Z,1.90
2023-02-27T01:13:01.760Z,2.10
2023-02-27T01:15:28.584Z,2.50
2023-02-27T01:17:55.373Z,1.90
2023-02-27T01:20:22.197Z,2.50
2023-02-27T01:22:48.977Z,1.90
2023-02-27T01:25:15.877Z,2.50
2023-02-27T01:27:42.981Z,1.80
2023-02-27T01:30:11.686Z,1.90
2023-02-27T01:32:38.604Z,2.10
2023-02-27T01:35:06.329Z,2.00
2023-02-27T01:37:33.088Z,1.70
2023-02-27T01:39:59.912Z,1.90
2023-02-27T01:42:28.866Z,2.30
2023-02-27T01:45:25.029Z,1.80
2023-02-27T01:48:07.606Z,2.00
2023-02-27T01:50:38.858Z,1.90
2023-02-27T01:53:06.915Z,2.00
2023-02-27T01:55:38.135Z,2.20
2023-02-27T01:58:08.103Z,2.30
2023-02-27T02:00:35.082Z,2.20
2023-02-27T02:03:28.034Z,2.40
2023-02-27T02:05:58.383Z,1.90
2023-02-27T02:08:29.136Z,2.20
2023-02-27T02:10:56.863Z,1.40
2023-02-27T02:13:24.237Z,2.10
2023-02-27T02:16:32.447Z,1.90
2023-02-27T02:19:23.379Z,2.00
2023-02-27T02:22:21.391Z,1.90
2023-02-27T02:25:45.316Z,2.10
2023-02-27T02:28:18.244Z,1.80
2023-02-27T02:31:02.037Z,1.80
2023-02-27T02:33:40.971Z,2.40
2023-02-27T02:36:10.668Z,2.50
2023-02-27T02:39:15.629Z,2.10
2023-02-27T02:42:05.439Z,2.40
2023-02-27T02:44:38.205Z,1.60
2023-02-27T02:47:36.288Z,2.10
2023-02-27T02:50:35.792Z,2.00
2023-02-27T02:53:36.571Z,1.90
2023-02-27T02:56:16.507Z,1.80
2023-02-27T02:58:50.846Z,2.10
2023-02-27T03:01:35.156Z,2.60
2023-02-27T03:04:20.558Z,1.80
2023-02-27T03:07:05.819Z,2.00
2023-02-27T03:09:41.535Z,2.10
2023-02-27T03:12:13.834Z,1.80
2023-02-27T03:15:13.602Z,1.30
2023-02-27T03:18:08.762Z,1.80
2023-02-27T03:20:46.686Z,1.70
2023-02-27T03:23:27.952Z,2.10
2023-02-27T03:25:58.139Z,1.80
2023-02-27T03:28:32.827Z,2.00
2023-02-27T03:31:26.540Z,2.40
2023-02-27T03:34:02.653Z,2.30
2023-02-27T03:37:14.792Z,2.70
2023-02-27T03:40:01.241Z,1.80
2023-02-27T03:42:55.846Z,2.10
2023-02-27T03:46:11.592Z,2.40
2023-02-27T03:48:44.398Z,1.90
2023-02-27T03:51:23.630Z,2.00
2023-02-27T03:54:07.283Z,2.30
2023-02-27T03:56:44.720Z,1.80
2023-02-27T03:59:11.594Z,1.80
2023-02-27T04:01:38.878Z,2.10
2023-02-27T04:04:14.121Z,2.00
2023-02-27T04:07:07.362Z,2.20
2023-02-27T04:09:59.035Z,1.70
2023-02-27T04:12:31.598Z,2.10
2023-02-27T04:15:25.825Z,2.00
2023-02-27T04:18:31.984Z,1.70
2023-02-27T04:21:09.845Z,1.30
2023-02-27T04:23:59.200Z,1.30
2023-02-27T04:26:54.398Z,2.10
2023-02-27T04:29:42.701Z,2.00
2023-02-27T04:33:15.787Z,1.60
2023-02-27T04:35:54.728Z,2.00
2023-02-27T04:38:27.874Z,1.80
2023-02-27T04:41:20.261Z,1.80
2023-02-27T04:43:48.312Z,1.50
2023-02-27T04:46:18.562Z,1.70
2023-02-27T04:49:00.103Z,1.80
2023-02-27T04:51:45.893Z,2.10
2023-02-27T04:54:19.193Z,1.80
2023-02-27T04:56:54.147Z,1.70
2023-02-27T04:59:30.084Z,1.60
2023-02-27T05:02:02.728Z,1.80
2023-02-27T05:04:35.998Z,1.70
2023-02-27T05:07:06.206Z,1.40
2023-02-27T05:09:53.084Z,1.30
2023-02-27T05:12:51.869Z,1.30
2023-02-27T05:15:40.832Z,1.90
2023-02-27T05:18:11.320Z,1.50
2023-02-27T05:21:06.340Z,2.00
2023-02-27T05:24:09.689Z,1.20
2023-02-27T05:27:00.182Z,1.90
2023-02-27T05:29:48.519Z,1.50
2023-02-27T05:32:34.153Z,1.60
2023-02-27T05:35:28.752Z,1.40
2023-02-27T05:38:22.010Z,1.70
2023-02-27T05:40:58.674Z,1.40
2023-02-27T05:43:40.726Z,1.40
2023-02-27T05:46:14.415Z,1.70
2023-02-27T05:49:30.675Z,1.60
2023-02-27T05:52:03.399Z,1.40
2023-02-27T05:54:34.833Z,1.80
2023-02-27T05:57:02.789Z,2.00
2023-02-27T05:59:43.417Z,1.20
2023-02-27T06:02:12.106Z,0.90
2023-02-27T06:04:40.853Z,1.40
2023-02-27T06:07:08.666Z,1.30
2023-02-27T06:09:35.820Z,1.70
2023-02-27T06:12:02.668Z,1.30
2023-02-27T06:14:29.403Z,1.80
2023-02-27T06:16:56.219Z,1.50
2023-02-27T06:19:23.017Z,1.00
2023-02-27T06:21:49.982Z,1.40
2023-02-27T06:24:16.737Z,1.50
2023-02-27T06:26:43.558Z,1.30
2023-02-27T06:29:10.386Z,1.30
2023-02-27T06:31:37.139Z,1.10
2023-02-27T06:34:03.899Z,1.30
2023-02-27T06:36:30.845Z,1.60
2023-02-27T06:38:57.988Z,1.80
2023-02-27T06:41:24.834Z,1.70
2023-02-27T06:43:51.578Z,1.60
2023-02-27T06:46:18.380Z,1.20
2023-02-27T06:48:45.613Z,1.60
2023-02-27T06:51:12.405Z,1.70
2023-02-27T06:53:39.215Z,1.30
2023-02-27T06:56:07.481Z,1.50
2023-02-27T06:58:34.206Z,1.20
2023-02-27T07:01:01.145Z,1.30
2023-02-27T07:03:28.981Z,1.50
2023-02-27T07:05:58.742Z,1.50
2023-02-27T07:08:25.597Z,0.90
2023-02-27T07:10:52.340Z,1.20
2023-02-27T07:13:19.839Z,1.70
2023-02-27T07:15:46.853Z,1.70
2023-02-27T07:18:13.749Z,2.00
2023-02-27T07:20:40.535Z,1.40
2023-02-27T07:23:07.640Z,1.20
2023-02-27T07:25:34.456Z,1.40
2023-02-27T07:28:01.231Z,1.50
2023-02-27T07:30:28.683Z,1.70
2023-02-27T07:32:55.481Z,2.10
2023-02-27T07:35:22.654Z,1.40
2023-02-27T07:37:49.394Z,1.80
2023-02-27T07:40:17.369Z,1.50
2023-02-27T07:42:44.238Z,1.50
2023-02-27T07:45:11.481Z,1.50
2023-02-27T07:47:38.257Z,1.60
2023-02-27T07:50:05.651Z,2.30
2023-02-27T07:52:32.895Z,2.80
2023-02-27T07:54:59.660Z,2.60
2023-02-27T07:57:26.483Z,2.20
2023-02-27T07:59:53.257Z,2.80
2023-02-27T08:02:20.116Z,2.60
2023-02-27T08:04:46.917Z,1.90
2023-02-27T08:07:13.741Z,2.20
2023-02-27T08:09:40.494Z,2.20
2023-02-27T08:12:07.271Z,2.90
2023-02-27T08:14:34.006Z,2.60
2023-02-27T08:17:01.195Z,3.20
2023-02-27T08:19:27.971Z,3.30
2023-02-27T08:21:54.761Z,3.40
2023-02-27T08:24:21.610Z,2.90
2023-02-27T08:26:48.593Z,3.30
2023-02-27T08:29:17.007Z,2.90
2023-02-27T08:31:44.168Z,2.70
2023-02-27T08:34:11.191Z,3.30
2023-02-27T08:36:39.182Z,3.10
2023-02-27T08:39:07.083Z,2.60
2023-02-27T08:41:34.800Z,3.40
2023-02-27T08:44:01.960Z,2.80
2023-02-27T08:46:29.156Z,3.00
2023-02-27T08:48:56.159Z,3.80
2023-02-27T08:51:22.948Z,3.20
2023-02-27T08:53:49.753Z,4.10
2023-02-27T08:56:16.557Z,4.30
2023-02-27T08:58:43.347Z,4.00
2023-02-27T09:01:10.122Z,3.80
2023-02-27T09:03:37.300Z,4.00
2023-02-27T09:06:05.200Z,4.00
2023-02-27T09:08:32.139Z,4.00
2023-02-27T09:10:59.179Z,3.70
2023-02-27T09:13:26.799Z,3.50
2023-02-27T09:15:54.547Z,4.10
2023-02-27T09:18:22.501Z,3.80
2023-02-27T09:20:51.074Z,4.10
2023-02-27T09:23:18.085Z,4.40
2023-02-27T09:25:47.282Z,4.50
2023-02-27T09:28:14.170Z,4.20
2023-02-27T09:30:40.967Z,3.90
2023-02-27T09:33:07.965Z,4.20
2023-02-27T09:35:34.767Z,3.70
2023-02-27T09:38:01.522Z,4.40
2023-02-27T09:40:32.337Z,4.60
2023-02-27T09:43:11.558Z,4.70
2023-02-27T09:45:39.523Z,4.30
2023-02-27T09:48:46.660Z,3.70
2023-02-27T09:51:16.654Z,4.20
2023-02-27T09:53:47.808Z,4.40
2023-02-27T09:56:30.925Z,3.80
2023-02-27T09:59:30.933Z,4.30
2023-02-27T10:02:23.201Z,4.30
2023-02-27T10:05:21.911Z,4.40
2023-02-27T10:08:04.997Z,4.30
2023-02-27T10:10:44.525Z,3.90
2023-02-27T10:13:39.695Z,4.80
2023-02-27T10:16:16.163Z,4.50
2023-02-27T10:18:51.405Z,4.10
2023-02-27T10:21:28.282Z,4.20
2023-02-27T10:24:02.271Z,4.20
2023-02-27T10:26:36.091Z,4.60
2023-02-27T10:29:31.591Z,4.10
2023-02-27T10:32:26.717Z,5.00
2023-02-27T10:35:08.827Z,4.70
2023-02-27T10:37:39.902Z,4.90
2023-02-27T10:40:07.723Z,4.30
2023-02-27T10:42:40.696Z,4.20
2023-02-27T10:45:17.619Z,4.20
2023-02-27T10:47:45.400Z,4.30
2023-02-27T10:50:31.942Z,4.80
2023-02-27T10:53:04.959Z,4.80
2023-02-27T10:55:38.171Z,4.20
2023-02-27T10:58:05.744Z,4.40
2023-02-27T11:00:38.130Z,4.90
2023-02-27T11:03:06.085Z,4.00
2023-02-27T11:05:36.187Z,4.50
2023-02-27T11:08:28.312Z,4.80
2023-02-27T11:11:02.506Z,5.00
2023-02-27T11:13:36.662Z,5.00
2023-02-27T11:16:21.876Z,5.70
2023-02-27T11:18:51.691Z,5.40
2023-02-27T11:21:30.376Z,5.40
2023-02-27T11:24:06.320Z,5.60
2023-02-27T11:26:40.235Z,6.20
2023-02-27T11:29:11.592Z,5.30
2023-02-27T11:31:39.429Z,5.40
2023-02-27T11:34:08.221Z,5.20
2023-02-27T11:36:47.383Z,5.20
2023-02-27T11:39:26.283Z,5.40
2023-02-27T11:41:55.664Z,5.10
2023-02-27T11:44:50.469Z,5.70
2023-02-27T11:47:16.937Z,6.30
2023-02-27T11:50:09.806Z,6.00
2023-02-27T11:52:48.330Z,5.80
2023-02-27T11:55:21.010Z,5.80
2023-02-27T11:57:54.488Z,5.20
2023-02-27T12:00:28.704Z,5.80
2023-02-27T12:03:22.497Z,5.60
2023-02-27T12:06:00.897Z,5.50
2023-02-27T12:09:06.035Z,5.30
2023-02-27T12:11:42.321Z,5.50
2023-02-27T12:14:08.961Z,5.50
2023-02-27T12:16:51.128Z,5.70
2023-02-27T12:19:39.787Z,5.40
2023-02-27T12:22:27.072Z,5.80
2023-02-27T12:25:17.454Z,6.10
2023-02-27T12:27:52.403Z,5.60
2023-02-27T12:30:27.286Z,5.50
2023-02-27T12:32:54.839Z,5.40
2023-02-27T12:35:28.946Z,6.00
2023-02-27T12:37:57.292Z,6.60
2023-02-27T12:40:37.812Z,6.00
2023-02-27T12:43:22.913Z,6.20
2023-02-27T12:46:29.116Z,5.20
2023-02-27T12:49:39.402Z,5.90
2023-02-27T12:52:39.051Z,5.50
2023-02-27T12:55:11.093Z,5.70
2023-02-27T12:58:17.655Z,5.90
2023-02-27T13:01:01.654Z,5.90
2023-02-27T13:03:54.576Z,5.80
2023-02-27T13:06:51.891Z,6.00
2023-02-27T13:09:49.714Z,6.00
2023-02-27T13:12:27.156Z,6.00
2023-02-27T13:15:02.659Z,5.90
2023-02-27T13:17:48.534Z,5.50
2023-02-27T13:20:25.176Z,6.40
2023-02-27T13:23:19.929Z,6.00
2023-02-27T13:25:51.088Z,5.90
2023-02-27T13:28:26.368Z,5.80
2023-02-27T13:31:20.543Z,5.50
2023-02-27T13:34:16.674Z,5.70
2023-02-27T13:36:54.076Z,5.80
2023-02-27T13:39:56.321Z,6.00
2023-02-27T13:42:25.752Z,5.60
2023-02-27T13:44:54.350Z,5.70
2023-02-27T13:47:30.515Z,6.00
2023-02-27T13:50:21.271Z,5.80
2023-02-27T13:52:48.560Z,5.90
2023-02-27T13:55:36.929Z,6.40
2023-02-27T13:58:05.587Z,5.80
2023-02-27T14:00:34.905Z,5.60
2023-02-27T14:03:22.992Z,6.00
2023-02-27T14:05:53.175Z,6.00
2023-02-27T14:08:27.130Z,5.70
2023-02-27T14:11:20.594Z,5.50
2023-02-27T14:13:50.124Z,6.10
2023-02-27T14:16:42.724Z,5.50
2023-02-27T14:19:14.933Z,6.00
2023-02-27T14:22:31.440Z,5.70
2023-02-27T14:25:13.932Z,5.90
2023-02-27T14:27:43.718Z,5.70
2023-02-27T14:30:29.609Z,5.40
2023-02-27T14:33:37.587Z,5.20
2023-02-27T14:36:13.980Z,5.50
2023-02-27T14:38:40.919Z,5.40
2023-02-27T14:41:33.325Z,5.30
2023-02-27T14:44:02.192Z,5.20
2023-02-27T14:46:37.950Z,5.00
2023-02-27T14:49:22.775Z,5.40
2023-02-27T14:51:50.569Z,5.40
2023-02-27T14:54:28.894Z,4.90
2023-02-27T14:57:04.380Z,5.20
2023-02-27T14:59:42.034Z,5.70
2023-02-27T15:02:34.529Z,6.20
2023-02-27T15:05:01.178Z,5.90
2023-02-27T15:07:34.127Z,6.00
2023-02-27T15:10:07.306Z,6.00
2023-02-27T15:12:39.089Z,5.20
2023-02-27T15:15:09.000Z,5.50
2023-02-27T15:17:43.313Z,5.40
2023-02-27T15:20:31.993Z,5.50
2023-02-27T15:23:02.411Z,5.60
2023-02-27T15:25:38.412Z,5.00
2023-02-27T15:28:25.462Z,4.80
2023-02-27T15:30:55.282Z,5.20
2023-02-27T15:33:30.857Z,5.40
2023-02-27T15:35:58.690Z,4.90
2023-02-27T15:38:30.926Z,5.20
2023-02-27T15:40:59.845Z,4.90
2023-02-27T15:43:28.169Z,5.50
2023-02-27T15:45:56.031Z,5.40
2023-02-27T15:48:23.197Z,5.10
2023-02-27T15:50:57.541Z,5.00
2023-02-27T15:53:27.079Z,5.00
2023-02-27T15:55:57.967Z,5.10
2023-02-27T15:58:26.639Z,4.80
2023-02-27T16:01:05.795Z,4.90
2023-02-27T16:03:49.442Z,5.40
2023-02-27T16:06:26.794Z,5.30
2023-02-27T16:09:01.379Z,4.90
2023-02-27T16:11:34.760Z,4.90
2023-02-27T16:14:02.300Z,5.00
2023-02-27T16:16:38.411Z,4.70
2023-02-27T16:19:30.989Z,4.40
2023-02-27T16:22:19.882Z,5.10
2023-02-27T16:24:47.725Z,4.50
2023-02-27T16:27:27.279Z,5.00
2023-02-27T16:29:57.349Z,5.60
2023-02-27T16:32:29.158Z,5.00
2023-02-27T16:35:08.501Z,4.40
2023-02-27T16:37:41.140Z,5.10
2023-02-27T16:40:23.280Z,5.20
2023-02-27T16:42:51.189Z,5.10
2023-02-27T16:45:27.879Z,5.30
2023-02-27T16:47:58.695Z,5.30
2023-02-27T16:50:35.720Z,4.80
2023-02-27T16:53:02.511Z,5.10
2023-02-27T16:55:29.482Z,5.40
2023-02-27T16:57:56.261Z,4.70
2023-02-27T17:00:23.454Z,5.10
2023-02-27T17:02:51.188Z,4.40
2023-02-27T17:05:18.630Z,4.90
2023-02-27T17:07:45.676Z,4.60
2023-02-27T17:10:21.905Z,4.40
2023-02-27T17:12:48.727Z,4.40
2023-02-27T17:15:15.951Z,5.40
2023-02-27T17:17:43.275Z,4.90
2023-02-27T17:20:12.299Z,5.00
2023-02-27T17:22:42.130Z,5.20
2023-02-27T17:25:10.729Z,4.80
2023-02-27T17:27:37.489Z,4.60
2023-02-27T17:30:05.950Z,5.40
2023-02-27T17:32:34.467Z,4.60
2023-02-27T17:35:01.369Z,4.90
2023-02-27T17:37:28.155Z,4.90
2023-02-27T17:39:55.344Z,5.30
2023-02-27T17:42:25.498Z,5.50
2023-02-27T17:44:52.408Z,5.50
2023-02-27T17:47:19.548Z,4.80
2023-02-27T17:49:46.448Z,4.60
2023-02-27T17:52:13.306Z,5.40
2023-02-27T17:54:40.136Z,4.90
2023-02-27T17:57:09.201Z,4.70
2023-02-27T17:59:36.259Z,4.80
2023-02-27T18:02:03.073Z,3.90
2023-02-27T18:04:29.992Z,4.80
2023-02-27T18:06:56.778Z,4.30
2023-02-27T18:09:23.695Z,4.00
2023-02-27T18:11:50.487Z,4.50
2023-02-27T18:14:17.391Z,4.10
2023-02-27T18:16:45.028Z,4.20
2023-02-27T18:19:12.020Z,4.20
2023-02-27T18:21:38.857Z,4.00
2023-02-27T18:24:06.094Z,4.40
2023-02-27T18:26:33.607Z,4.20
2023-02-27T18:29:08.209Z,4.40
2023-02-27T18:31:53.622Z,4.30
2023-02-27T18:34:21.954Z,4.10
2023-02-27T18:36:49.057Z,3.90
2023-02-27T18:39:15.849Z,4.00
2023-02-27T18:41:42.610Z,4.60
2023-02-27T18:44:10.520Z,4.20
2023-02-27T18:46:38.706Z,4.10
2023-02-27T18:49:05.683Z,4.30
2023-02-27T18:51:32.487Z,4.10
2023-02-27T18:54:00.776Z,4.00
2023-02-27T18:56:30.437Z,4.10
2023-02-27T18:59:01.834Z,4.40
2023-02-27T19:01:32.679Z,4.30
2023-02-27T19:04:03.992Z,4.00
2023-02-27T19:06:36.733Z,4.10
2023-02-27T19:09:13.487Z,3.90
2023-02-27T19:11:40.297Z,4.10
2023-02-27T19:14:10.839Z,4.10
2023-02-27T19:16:37.755Z,4.50
2023-02-27T19:19:05.091Z,4.00
2023-02-27T19:21:32.887Z,3.60
2023-02-27T19:24:00.808Z,4.10
2023-02-27T19:26:28.378Z,3.70
2023-02-27T19:28:56.234Z,4.20
2023-02-27T19:31:24.766Z,3.90
2023-02-27T19:33:51.906Z,4.40
2023-02-27T19:36:20.926Z,4.80
2023-02-27T19:38:48.721Z,4.10
2023-02-27T19:41:17.304Z,4.60
2023-02-27T19:43:45.423Z,4.00
2023-02-27T19:46:29.570Z,4.60
2023-02-27T19:48:59.406Z,4.10
2023-02-27T19:51:26.651Z,3.90
2023-02-27T19:53:54.102Z,3.90
2023-02-27T19:56:24.890Z,3.80
2023-02-27T19:58:52.708Z,3.60
2023-02-27T20:01:30.876Z,4.30
2023-02-27T20:03:59.156Z,3.60
2023-02-27T20:06:29.927Z,3.90
2023-02-27T20:08:58.333Z,3.50
2023-02-27T20:11:30.020Z,3.60
2023-02-27T20:13:57.527Z,3.30
2023-02-27T20:16:28.029Z,3.70
2023-02-27T20:18:55.150Z,3.30
2023-02-27T20:21:24.336Z,4.00
2023-02-27T20:23:51.840Z,4.00
2023-02-27T20:26:26.493Z,3.60
2023-02-27T20:28:56.698Z,3.80
2023-02-27T20:31:27.351Z,3.80
2023-02-27T20:33:55.248Z,3.50
2023-02-27T20:36:22.082Z,3.20
2023-02-27T20:38:49.041Z,3.60
2023-02-27T20:41:22.514Z,3.60
2023-02-27T20:43:49.596Z,3.30
2023-02-27T20:46:24.646Z,3.90
2023-02-27T20:48:51.597Z,3.70
2023-02-27T20:51:22.498Z,4.20
2023-02-27T20:53:53.139Z,3.70
2023-02-27T20:56:25.334Z,3.60
2023-02-27T20:58:52.103Z,3.60
2023-02-27T21:01:20.197Z,3.50
2023-02-27T21:03:50.659Z,3.80
2023-02-27T21:06:19.088Z,3.60
2023-02-27T21:08:52.652Z,3.40
2023-02-27T21:11:31.386Z,3.60
2023-02-27T21:14:03.799Z,3.30
2023-02-27T21:16:30.620Z,4.00
2023-02-27T21:18:57.518Z,3.70
2023-02-27T21:21:31.554Z,3.90
2023-02-27T21:23:59.129Z,3.90
2023-02-27T21:26:31.263Z,3.80
2023-02-27T21:29:20.505Z,3.60
2023-02-27T21:31:49.288Z,3.40
2023-02-27T21:34:25.507Z,3.20
2023-02-27T21:36:53.647Z,3.20
2023-02-27T21:39:25.746Z,3.00
2023-02-27T21:41:53.364Z,3.10
2023-02-27T21:44:24.987Z,3.40
2023-02-27T21:46:53.323Z,2.80
2023-02-27T21:49:24.162Z,3.40
2023-02-27T21:51:51.039Z,3.40
2023-02-27T21:54:22.350Z,3.20
2023-02-27T21:56:49.924Z,3.00
2023-02-27T21:59:21.477Z,2.70
2023-02-27T22:01:48.844Z,2.90
2023-02-27T22:04:18.864Z,3.20
2023-02-27T22:06:47.539Z,3.00
2023-02-27T22:09:15.171Z,2.80
2023-02-27T22:11:42.092Z,2.40
2023-02-27T22:14:10.500Z,3.00
2023-02-27T22:16:38.259Z,3.10
2023-02-27T22:19:13.580Z,3.10
2023-02-27T22:21:41.077Z,3.20
2023-02-27T22:24:07.995Z,2.90
2023-02-27T22:26:35.180Z,2.80
2023-02-27T22:29:02.262Z,2.80
2023-02-27T22:31:35.983Z,2.90
2023-02-27T22:34:10.622Z,2.80
2023-02-27T22:36:37.644Z,2.70
2023-02-27T22:39:06.303Z,2.60
2023-02-27T22:41:36.764Z,2.60
2023-02-27T22:44:04.402Z,2.60
2023-02-27T22:46:36.430Z,2.80
2023-02-27T22:49:08.109Z,2.80
2023-02-27T22:51:35.641Z,3.00
2023-02-27T22:54:04.890Z,2.80
2023-02-27T22:56:32.682Z,2.80
2023-02-27T22:59:00.214Z,3.00
2023-02-27T23:01:30.808Z,2.70
2023-02-27T23:04:04.062Z,2.50
2023-02-27T23:06:40.789Z,2.60
2023-02-27T23:09:18.312Z,2.80
2023-02-27T23:11:45.958Z,2.50
2023-02-27T23:14:13.493Z,2.20
2023-02-27T23:16:45.349Z,2.60
2023-02-27T23:19:15.793Z,2.10
2023-02-27T23:21:42.826Z,2.90
2023-02-27T23:24:16.776Z,2.90
2023-02-27T23:26:50.360Z,2.50
2023-02-27T23:29:17.323Z,3.00
2023-02-27T23:31:44.213Z,2.50
2023-02-27T23:34:11.122Z,2.80
2023-02-27T23:36:39.379Z,2.90
2023-02-27T23:39:07.232Z,2.20
2023-02-27T23:41:34.941Z,2.40
2023-02-27T23:44:02.050Z,2.50
2023-02-27T23:46:30.576Z,2.70
2023-02-27T23:49:01.807Z,3.20
2023-02-27T23:51:30.656Z,2.90
2023-02-27T23:53:58.732Z,2.50
2023-02-27T23:56:29.412Z,2.70
2023-02-27T23:59:06.001Z,3.00
